createdAt,value
2022-12-06T00:01:46.913Z,1.27
2022-12-06T00:04:15.522Z,1.03
2022-12-06T00:06:47.975Z,0.98
2022-12-06T00:09:25.837Z,0.95
2022-12-06T00:11:52.737Z,1.24
2022-12-06T00:14:19.530Z,1.26
2022-12-06T00:16:46.221Z,1.34
2022-12-06T00:19:13.865Z,0.95
2022-12-06T00:21:40.314Z,1.25
2022-12-06T00:24:10.395Z,1.22
2022-12-06T00:26:38.474Z,1.23
2022-12-06T00:29:05.800Z,1.30
2022-12-06T00:31:34.380Z,0.91
2022-12-06T00:34:01.435Z,1.15
2022-12-06T00:36:30.656Z,1.21
2022-12-06T00:39:00.486Z,1.28
2022-12-06T00:41:26.914Z,1.14
2022-12-06T00:43:54.019Z,0.83
2022-12-06T00:46:25.742Z,0.85
2022-12-06T00:48:53.519Z,0.80
2022-12-06T00:51:20.848Z,0.91
2022-12-06T00:53:48.145Z,0.94
2022-12-06T00:56:15.130Z,0.82
2022-12-06T00:58:42.048Z,0.91
2022-12-06T01:01:14.437Z,0.86
2022-12-06T01:03:41.784Z,0.91
2022-12-06T01:06:11.236Z,0.90
2022-12-06T01:08:38.343Z,0.82
2022-12-06T01:11:05.811Z,0.78
2022-12-06T01:13:32.358Z,0.81
2022-12-06T01:16:05.461Z,0.73
2022-12-06T01:18:31.823Z,0.73
2022-12-06T01:21:03.603Z,0.75
2022-12-06T01:23:29.977Z,0.77
2022-12-06T01:25:56.348Z,0.97
2022-12-06T01:28:22.764Z,0.74
2022-12-06T01:30:49.238Z,0.76
2022-12-06T01:33:15.694Z,0.73
2022-12-06T01:35:42.427Z,0.78
2022-12-06T01:38:15.589Z,0.73
2022-12-06T01:40:47.774Z,0.84
2022-12-06T01:43:33.243Z,0.77
2022-12-06T01:46:40.562Z,0.74
2022-12-06T01:49:11.865Z,0.65
2022-12-06T01:51:49.578Z,0.65
2022-12-06T01:54:17.551Z,0.73
2022-12-06T01:56:44.069Z,0.94
2022-12-06T01:59:11.871Z,1.08
2022-12-06T02:01:39.611Z,1.21
2022-12-06T02:04:07.117Z,1.31
2022-12-06T02:06:33.850Z,1.37
2022-12-06T02:09:03.742Z,1.32
2022-12-06T02:11:34.978Z,1.31
2022-12-06T02:14:03.571Z,1.39
2022-12-06T02:16:39.104Z,1.40
2022-12-06T02:19:23.522Z,1.40
2022-12-06T02:21:58.936Z,1.49
2022-12-06T02:24:56.762Z,1.50
2022-12-06T02:27:44.830Z,1.33
2022-12-06T02:30:18.029Z,1.39
2022-12-06T02:32:57.431Z,1.40
2022-12-06T02:35:31.006Z,1.46
2022-12-06T02:38:03.253Z,1.27
2022-12-06T02:40:31.591Z,1.35
2022-12-06T02:43:02.854Z,1.36
2022-12-06T02:45:32.999Z,1.43
2022-12-06T02:48:02.087Z,1.52
2022-12-06T02:50:32.494Z,1.55
2022-12-06T02:53:00.334Z,1.54
2022-12-06T02:55:27.473Z,1.54
2022-12-06T02:57:54.672Z,1.48
2022-12-06T03:00:33.419Z,1.54
2022-12-06T03:03:14.795Z,1.51
2022-12-06T03:06:10.451Z,1.42
2022-12-06T03:08:58.631Z,1.39
2022-12-06T03:11:30.787Z,1.35
2022-12-06T03:14:02.475Z,1.49
2022-12-06T03:16:41.502Z,1.54
2022-12-06T03:19:20.203Z,1.65
2022-12-06T03:21:58.040Z,1.51
2022-12-06T03:24:25.509Z,1.36
2022-12-06T03:26:52.854Z,1.43
2022-12-06T03:29:21.926Z,1.50
2022-12-06T03:31:48.611Z,1.51
2022-12-06T03:34:20.534Z,1.52
2022-12-06T03:36:47.923Z,1.43
2022-12-06T03:39:17.175Z,1.41
2022-12-06T03:41:46.418Z,1.50
2022-12-06T03:44:12.851Z,1.31
2022-12-06T03:46:45.174Z,1.58
2022-12-06T03:49:12.161Z,1.42
2022-12-06T03:51:39.680Z,1.55
2022-12-06T03:54:07.974Z,1.72
2022-12-06T03:56:36.672Z,1.73
2022-12-06T03:59:10.676Z,1.76
2022-12-06T04:01:38.013Z,1.72
2022-12-06T04:04:05.109Z,1.67
2022-12-06T04:06:31.639Z,1.71
2022-12-06T04:09:17.982Z,1.71
2022-12-06T04:11:44.430Z,1.74
2022-12-06T04:14:10.829Z,1.71
2022-12-06T04:16:55.824Z,1.74
2022-12-06T04:19:22.210Z,1.75
2022-12-06T04:22:06.893Z,1.76
2022-12-06T04:24:33.256Z,1.76
2022-12-06T04:27:22.392Z,1.70
2022-12-06T04:30:07.157Z,1.79
2022-12-06T04:32:51.987Z,1.61
2022-12-06T04:35:36.964Z,1.58
2022-12-06T04:38:22.054Z,1.63
2022-12-06T04:40:48.457Z,1.58
2022-12-06T04:43:33.676Z,1.63
2022-12-06T04:46:00.065Z,1.64
2022-12-06T04:48:26.452Z,1.74
2022-12-06T04:50:52.884Z,1.69
2022-12-06T04:53:19.244Z,1.72
2022-12-06T04:55:49.259Z,1.63
2022-12-06T04:58:16.089Z,1.61
2022-12-06T05:00:45.312Z,1.67
2022-12-06T05:03:12.894Z,1.79
2022-12-06T05:05:39.503Z,1.82
2022-12-06T05:08:07.542Z,1.86
2022-12-06T05:10:34.186Z,1.85
2022-12-06T05:13:01.157Z,1.85
2022-12-06T05:15:29.374Z,1.85
2022-12-06T05:17:55.887Z,1.77
2022-12-06T05:20:22.321Z,1.89
2022-12-06T05:22:48.677Z,1.81
2022-12-06T05:25:16.709Z,1.46
2022-12-06T05:27:43.071Z,1.51
2022-12-06T05:30:10.022Z,1.38
2022-12-06T05:32:38.449Z,1.33
2022-12-06T05:35:05.496Z,1.63
2022-12-06T05:37:31.859Z,1.52
2022-12-06T05:39:58.468Z,1.69
2022-12-06T05:42:25.478Z,1.73
2022-12-06T05:44:51.859Z,1.73
2022-12-06T05:47:18.289Z,1.92
2022-12-06T05:49:44.742Z,1.80
2022-12-06T05:52:11.085Z,1.82
2022-12-06T05:54:37.481Z,1.86
2022-12-06T05:57:03.855Z,1.85
2022-12-06T05:59:30.328Z,1.76
2022-12-06T06:01:56.780Z,1.77
2022-12-06T06:04:23.241Z,1.63
2022-12-06T06:06:49.711Z,1.56
2022-12-06T06:09:16.062Z,1.77
2022-12-06T06:11:42.423Z,1.88
2022-12-06T06:14:08.917Z,2.09
2022-12-06T06:16:35.356Z,2.08
2022-12-06T06:19:01.756Z,2.05
2022-12-06T06:21:28.462Z,1.97
2022-12-06T06:23:57.828Z,1.97
2022-12-06T06:26:24.327Z,2.06
2022-12-06T06:28:50.690Z,2.01
2022-12-06T06:31:17.177Z,2.14
2022-12-06T06:33:43.745Z,2.19
2022-12-06T06:36:10.472Z,2.15
2022-12-06T06:38:36.829Z,2.17
2022-12-06T06:41:04.531Z,2.22
2022-12-06T06:43:31.284Z,2.15
2022-12-06T06:46:00.327Z,2.20
2022-12-06T06:48:28.421Z,2.23
2022-12-06T06:50:57.565Z,2.15
2022-12-06T06:53:26.231Z,2.24
2022-12-06T06:55:53.853Z,2.24
2022-12-06T06:58:20.230Z,2.31
2022-12-06T07:00:46.660Z,2.21
2022-12-06T07:03:15.441Z,2.22
2022-12-06T07:05:43.290Z,2.26
2022-12-06T07:08:10.563Z,2.20
2022-12-06T07:10:36.967Z,2.20
2022-12-06T07:13:03.795Z,2.23
2022-12-06T07:15:30.146Z,2.30
2022-12-06T07:17:56.501Z,2.36
2022-12-06T07:20:22.940Z,2.23
2022-12-06T07:22:49.302Z,2.31
2022-12-06T07:25:16.077Z,2.36
2022-12-06T07:27:42.464Z,2.21
2022-12-06T07:30:10.572Z,2.19
2022-12-06T07:32:39.595Z,2.23
2022-12-06T07:35:06.407Z,1.99
2022-12-06T07:37:32.906Z,1.98
2022-12-06T07:40:00.055Z,2.05
2022-12-06T07:42:45.254Z,2.15
2022-12-06T07:45:13.302Z,2.29
2022-12-06T07:47:42.134Z,2.33
2022-12-06T07:50:17.558Z,2.07
2022-12-06T07:52:46.366Z,2.34
2022-12-06T07:55:13.411Z,2.18
2022-12-06T07:57:43.419Z,2.33
2022-12-06T08:00:12.919Z,2.33
2022-12-06T08:02:39.415Z,2.41
2022-12-06T08:05:05.901Z,2.47
2022-12-06T08:07:32.335Z,2.36
2022-12-06T08:09:59.267Z,2.40
2022-12-06T08:12:25.809Z,2.41
2022-12-06T08:14:56.661Z,2.19
2022-12-06T08:17:25.827Z,2.29
2022-12-06T08:19:52.323Z,2.54
2022-12-06T08:22:18.716Z,2.29
2022-12-06T08:24:45.145Z,2.29
2022-12-06T08:27:11.650Z,2.29
2022-12-06T08:29:38.077Z,2.18
2022-12-06T08:32:04.686Z,2.15
2022-12-06T08:34:31.085Z,2.13
2022-12-06T08:37:01.754Z,2.36
2022-12-06T08:39:29.737Z,2.35
2022-12-06T08:41:57.798Z,2.39
2022-12-06T08:44:26.845Z,2.59
2022-12-06T08:46:54.159Z,2.61
2022-12-06T08:49:21.618Z,2.57
2022-12-06T08:51:48.151Z,2.61
2022-12-06T08:54:17.508Z,2.67
2022-12-06T08:56:44.023Z,2.66
2022-12-06T08:59:10.509Z,2.71
2022-12-06T09:01:38.417Z,2.67
2022-12-06T09:04:07.653Z,2.94
2022-12-06T09:06:34.465Z,2.82
2022-12-06T09:09:00.895Z,2.90
2022-12-06T09:11:27.324Z,2.85
2022-12-06T09:13:53.714Z,2.91
2022-12-06T09:16:21.834Z,2.86
2022-12-06T09:18:48.634Z,3.00
2022-12-06T09:21:34.295Z,2.93
2022-12-06T09:24:00.710Z,3.17
2022-12-06T09:26:28.357Z,3.04
2022-12-06T09:28:56.703Z,2.99
2022-12-06T09:31:23.604Z,3.03
2022-12-06T09:33:50.082Z,2.92
2022-12-06T09:36:23.233Z,2.98
2022-12-06T09:38:54.543Z,2.88
2022-12-06T09:41:37.874Z,3.17
2022-12-06T09:44:17.228Z,3.14
2022-12-06T09:46:55.384Z,3.17
2022-12-06T09:50:02.203Z,3.25
2022-12-06T09:52:36.996Z,3.31
2022-12-06T09:55:32.310Z,3.50
2022-12-06T09:58:08.698Z,3.30
2022-12-06T10:00:41.874Z,3.20
2022-12-06T10:03:29.366Z,3.35
2022-12-06T10:06:02.577Z,3.13
2022-12-06T10:08:42.651Z,3.31
2022-12-06T10:11:09.095Z,3.26
2022-12-06T10:13:50.628Z,3.30
2022-12-06T10:16:38.397Z,3.28
2022-12-06T10:19:35.280Z,3.23
2022-12-06T10:22:19.778Z,3.24
2022-12-06T10:25:08.404Z,3.60
2022-12-06T10:27:38.881Z,3.28
2022-12-06T10:30:10.823Z,3.59
2022-12-06T10:32:51.828Z,3.34
2022-12-06T10:35:19.462Z,3.41
2022-12-06T10:38:09.229Z,3.39
2022-12-06T10:40:53.974Z,3.24
2022-12-06T10:43:47.028Z,3.43
2022-12-06T10:46:49.797Z,3.45
2022-12-06T10:49:21.844Z,3.65
2022-12-06T10:52:26.267Z,3.54
2022-12-06T10:54:55.502Z,3.54
2022-12-06T10:57:28.703Z,3.46
2022-12-06T11:00:16.175Z,3.60
2022-12-06T11:02:57.984Z,3.66
2022-12-06T11:05:32.351Z,3.54
2022-12-06T11:08:06.526Z,3.61
2022-12-06T11:10:34.328Z,4.00
2022-12-06T11:13:17.874Z,4.24
2022-12-06T11:15:58.338Z,4.30
2022-12-06T11:18:29.141Z,4.50
2022-12-06T11:21:17.324Z,4.48
2022-12-06T11:23:53.230Z,4.16
2022-12-06T11:26:30.830Z,4.03
2022-12-06T11:29:05.957Z,4.13
2022-12-06T11:31:42.547Z,4.17
2022-12-06T11:34:17.540Z,4.23
2022-12-06T11:36:44.625Z,3.96
2022-12-06T11:39:13.877Z,4.49
2022-12-06T11:41:41.740Z,4.35
2022-12-06T11:44:12.863Z,4.55
2022-12-06T11:46:39.930Z,4.49
2022-12-06T11:49:28.007Z,4.19
2022-12-06T11:51:54.627Z,4.23
2022-12-06T11:54:34.505Z,4.40
2022-12-06T11:57:15.748Z,4.44
2022-12-06T12:00:16.157Z,4.49
2022-12-06T12:02:44.612Z,4.25
2022-12-06T12:05:17.067Z,4.04
2022-12-06T12:07:59.009Z,4.06
2022-12-06T12:10:43.210Z,4.01
2022-12-06T12:13:35.941Z,4.07
2022-12-06T12:16:23.088Z,4.20
2022-12-06T12:18:55.466Z,4.39
2022-12-06T12:21:40.139Z,4.44
2022-12-06T12:25:03.238Z,4.45
2022-12-06T12:27:35.421Z,4.15
2022-12-06T12:30:28.006Z,4.34
2022-12-06T12:33:06.367Z,4.15
2022-12-06T12:35:42.986Z,4.21
2022-12-06T12:38:09.255Z,4.49
2022-12-06T12:40:36.729Z,4.57
2022-12-06T12:43:06.454Z,4.57
2022-12-06T12:45:33.247Z,4.74
2022-12-06T12:48:01.710Z,5.05
2022-12-06T12:50:30.376Z,5.38
2022-12-06T12:52:56.764Z,5.28
2022-12-06T12:55:25.950Z,5.17
2022-12-06T12:57:59.970Z,4.87
2022-12-06T13:00:38.731Z,4.85
2022-12-06T13:03:49.489Z,4.65
2022-12-06T13:06:04.415Z,4.68
2022-12-06T13:08:34.884Z,4.91
2022-12-06T13:11:02.770Z,4.69
2022-12-06T13:13:35.808Z,4.74
2022-12-06T13:16:08.804Z,5.06
2022-12-06T13:18:47.118Z,4.91
2022-12-06T13:21:25.488Z,5.06
2022-12-06T13:24:07.727Z,5.21
2022-12-06T13:26:38.558Z,4.94
2022-12-06T13:29:29.267Z,4.74
2022-12-06T13:31:58.275Z,4.75
2022-12-06T13:34:41.298Z,4.70
2022-12-06T13:37:32.527Z,4.84
2022-12-06T13:39:59.405Z,4.81
2022-12-06T13:42:42.611Z,4.44
2022-12-06T13:45:42.011Z,4.48
2022-12-06T13:48:23.652Z,4.22
2022-12-06T13:50:59.098Z,4.43
2022-12-06T13:53:27.154Z,4.52
2022-12-06T13:56:01.443Z,4.45
2022-12-06T13:58:27.704Z,4.31
2022-12-06T14:00:55.264Z,4.52
2022-12-06T14:03:21.607Z,4.54
2022-12-06T14:06:14.319Z,4.55
2022-12-06T14:08:54.397Z,4.33
2022-12-06T14:11:21.186Z,4.24
2022-12-06T14:13:58.182Z,4.40
2022-12-06T14:16:35.010Z,4.36
2022-12-06T14:19:21.161Z,4.27
2022-12-06T14:22:04.958Z,4.34
2022-12-06T14:24:34.712Z,4.53
2022-12-06T14:27:11.411Z,4.53
2022-12-06T14:29:38.151Z,4.38
2022-12-06T14:32:04.710Z,4.19
2022-12-06T14:34:32.889Z,4.20
2022-12-06T14:37:01.382Z,4.16
2022-12-06T14:39:32.318Z,4.17
2022-12-06T14:42:22.291Z,4.18
2022-12-06T14:44:50.928Z,4.20
2022-12-06T14:47:18.943Z,4.23
2022-12-06T14:50:09.895Z,4.32
2022-12-06T14:52:36.295Z,4.21
2022-12-06T14:55:11.799Z,4.24
2022-12-06T14:57:48.036Z,4.34
2022-12-06T15:00:25.777Z,4.32
2022-12-06T15:03:03.820Z,4.26
2022-12-06T15:05:34.778Z,4.28
2022-12-06T15:08:18.620Z,4.23
2022-12-06T15:11:36.810Z,4.17
2022-12-06T15:14:24.189Z,4.05
2022-12-06T15:16:59.516Z,4.09
2022-12-06T15:19:26.054Z,4.11
2022-12-06T15:21:53.523Z,4.02
2022-12-06T15:24:24.954Z,3.92
2022-12-06T15:26:51.577Z,3.88
2022-12-06T15:29:18.551Z,3.88
2022-12-06T15:31:49.576Z,3.82
2022-12-06T15:34:22.415Z,3.83
2022-12-06T15:36:49.145Z,3.84
2022-12-06T15:39:15.681Z,3.98
2022-12-06T15:41:42.335Z,4.13
2022-12-06T15:44:17.083Z,4.24
2022-12-06T15:46:44.339Z,4.19
2022-12-06T15:49:17.993Z,4.25
2022-12-06T15:51:44.931Z,4.23
2022-12-06T15:54:29.482Z,4.12
2022-12-06T15:56:55.829Z,4.12
2022-12-06T15:59:22.204Z,4.07
2022-12-06T16:01:50.856Z,4.17
2022-12-06T16:04:22.620Z,3.99
2022-12-06T16:06:48.992Z,3.99
2022-12-06T16:09:17.325Z,3.94
2022-12-06T16:11:43.768Z,3.89
2022-12-06T16:14:10.311Z,3.92
2022-12-06T16:16:42.897Z,3.93
2022-12-06T16:19:09.781Z,3.91
2022-12-06T16:21:50.700Z,3.81
2022-12-06T16:24:17.099Z,3.70
2022-12-06T16:26:44.757Z,3.83
2022-12-06T16:29:15.056Z,3.87
2022-12-06T16:31:41.493Z,3.81
2022-12-06T16:34:08.223Z,3.77
2022-12-06T16:36:34.957Z,3.73
2022-12-06T16:39:04.643Z,3.66
2022-12-06T16:41:35.510Z,3.68
2022-12-06T16:44:02.492Z,3.69
2022-12-06T16:46:34.523Z,3.70
2022-12-06T16:49:44.601Z,3.70
2022-12-06T16:52:03.532Z,3.71
2022-12-06T16:54:30.079Z,3.63
2022-12-06T16:56:56.454Z,3.62
2022-12-06T16:59:22.836Z,3.59
2022-12-06T17:01:53.849Z,3.49
2022-12-06T17:04:20.735Z,3.38
2022-12-06T17:06:47.196Z,3.37
2022-12-06T17:09:14.188Z,3.44
2022-12-06T17:11:59.218Z,3.36
2022-12-06T17:14:25.842Z,3.48
2022-12-06T17:16:53.098Z,3.60
2022-12-06T17:19:22.110Z,3.70
2022-12-06T17:21:49.796Z,3.71
2022-12-06T17:24:17.160Z,3.73
2022-12-06T17:26:43.808Z,3.79
2022-12-06T17:29:10.199Z,3.86
2022-12-06T17:31:37.356Z,3.76
2022-12-06T17:34:04.888Z,3.76
2022-12-06T17:36:31.543Z,3.73
2022-12-06T17:38:57.976Z,3.63
2022-12-06T17:41:48.509Z,3.49
2022-12-06T17:44:17.939Z,3.43
2022-12-06T17:46:44.312Z,3.45
2022-12-06T17:49:14.194Z,3.46
2022-12-06T17:51:40.559Z,3.55
2022-12-06T17:54:09.345Z,3.65
2022-12-06T17:56:43.999Z,3.54
2022-12-06T17:59:13.237Z,3.68
2022-12-06T18:02:06.594Z,3.82
2022-12-06T18:04:27.940Z,3.84
2022-12-06T18:06:54.686Z,3.75
2022-12-06T18:09:21.482Z,3.76
2022-12-06T18:11:51.187Z,3.91
2022-12-06T18:14:17.631Z,3.92
2022-12-06T18:16:45.842Z,4.00
2022-12-06T18:19:15.113Z,3.97
2022-12-06T18:21:41.975Z,4.00
2022-12-06T18:24:29.100Z,4.05
2022-12-06T18:26:56.603Z,4.00
2022-12-06T18:29:23.706Z,4.14
2022-12-06T18:31:50.811Z,4.24
2022-12-06T18:34:17.802Z,4.29
2022-12-06T18:36:44.160Z,4.28
2022-12-06T18:39:15.301Z,4.23
2022-12-06T18:41:43.301Z,4.26
2022-12-06T18:44:10.262Z,4.29
2022-12-06T18:46:38.556Z,4.31
2022-12-06T18:49:05.008Z,4.20
2022-12-06T18:51:34.412Z,4.15
2022-12-06T18:54:02.235Z,4.20
2022-12-06T18:56:30.095Z,4.06
2022-12-06T18:59:00.961Z,4.01
2022-12-06T19:01:33.282Z,3.97
2022-12-06T19:04:01.116Z,3.88
2022-12-06T19:06:29.459Z,3.94
2022-12-06T19:08:57.817Z,3.88
2022-12-06T19:11:24.601Z,4.05
2022-12-06T19:13:53.287Z,4.06
2022-12-06T19:16:21.519Z,4.05
2022-12-06T19:18:48.388Z,4.04
2022-12-06T19:21:15.016Z,4.00
2022-12-06T19:23:41.355Z,4.02
2022-12-06T19:26:07.747Z,4.10
2022-12-06T19:28:34.225Z,4.13
2022-12-06T19:31:03.061Z,4.16
2022-12-06T19:33:30.723Z,4.07
2022-12-06T19:36:02.830Z,4.09
2022-12-06T19:38:29.308Z,4.10
2022-12-06T19:40:56.332Z,4.15
2022-12-06T19:43:45.337Z,4.16
2022-12-06T19:46:17.794Z,4.20
2022-12-06T19:48:44.175Z,4.25
2022-12-06T19:51:10.625Z,4.20
2022-12-06T19:53:38.991Z,4.20
2022-12-06T19:56:07.293Z,4.24
2022-12-06T19:58:34.020Z,4.31
2022-12-06T20:01:00.483Z,4.31
2022-12-06T20:03:26.907Z,4.25
2022-12-06T20:06:15.215Z,4.25
2022-12-06T20:08:45.595Z,4.20
2022-12-06T20:11:32.687Z,4.26
2022-12-06T20:14:00.628Z,4.26
2022-12-06T20:16:27.130Z,4.19
2022-12-06T20:18:53.837Z,4.09
2022-12-06T20:21:20.189Z,4.18
2022-12-06T20:23:46.555Z,4.18
2022-12-06T20:26:15.781Z,4.27
2022-12-06T20:28:43.153Z,4.20
2022-12-06T20:31:16.093Z,4.20
2022-12-06T20:33:42.587Z,4.19
2022-12-06T20:36:20.940Z,4.14
2022-12-06T20:38:47.327Z,4.22
2022-12-06T20:41:15.474Z,4.21
2022-12-06T20:43:42.682Z,4.27
2022-12-06T20:46:15.401Z,4.33
2022-12-06T20:48:43.038Z,4.34
2022-12-06T20:51:12.088Z,4.32
2022-12-06T20:53:38.578Z,4.33
2022-12-06T20:56:06.406Z,4.36
2022-12-06T20:58:32.894Z,4.32
2022-12-06T21:01:00.040Z,4.28
2022-12-06T21:03:27.118Z,4.20
2022-12-06T21:06:01.115Z,4.27
2022-12-06T21:08:27.651Z,4.25
2022-12-06T21:11:21.633Z,4.31
2022-12-06T21:13:41.740Z,4.34
2022-12-06T21:16:16.730Z,4.38
2022-12-06T21:18:43.814Z,4.33
2022-12-06T21:21:10.572Z,4.34
2022-12-06T21:23:37.519Z,4.38
2022-12-06T21:26:05.435Z,4.34
2022-12-06T21:28:32.531Z,4.48
2022-12-06T21:30:59.318Z,4.43
2022-12-06T21:33:26.166Z,4.44
2022-12-06T21:35:53.356Z,4.43
2022-12-06T21:38:21.143Z,4.43
2022-12-06T21:40:52.943Z,4.43
2022-12-06T21:43:20.911Z,4.36
2022-12-06T21:45:47.270Z,4.36
2022-12-06T21:48:13.703Z,4.36
2022-12-06T21:50:40.090Z,4.37
2022-12-06T21:53:06.418Z,4.45
2022-12-06T21:55:32.749Z,4.43
2022-12-06T21:57:59.145Z,4.41
2022-12-06T22:00:25.502Z,4.44
2022-12-06T22:02:52.495Z,4.35
2022-12-06T22:05:18.856Z,4.40
2022-12-06T22:07:45.321Z,4.51
2022-12-06T22:10:11.882Z,4.49
2022-12-06T22:12:38.582Z,4.49
2022-12-06T22:15:05.463Z,4.35
2022-12-06T22:17:31.846Z,4.36
2022-12-06T22:19:58.194Z,4.50
2022-12-06T22:22:24.653Z,4.50
2022-12-06T22:24:51.014Z,4.53
2022-12-06T22:27:17.383Z,4.45
2022-12-06T22:29:43.762Z,4.55
2022-12-06T22:32:10.118Z,4.56
2022-12-06T22:34:36.517Z,4.59
2022-12-06T22:37:02.852Z,4.43
2022-12-06T22:39:29.179Z,4.53
2022-12-06T22:41:55.762Z,4.44
2022-12-06T22:44:22.185Z,4.33
2022-12-06T22:46:48.633Z,4.46
2022-12-06T22:49:18.250Z,4.32
2022-12-06T22:51:45.567Z,4.24
2022-12-06T22:54:13.435Z,4.38
2022-12-06T22:56:47.029Z,4.42
2022-12-06T22:59:13.580Z,4.40
2022-12-06T23:01:40.023Z,4.40
2022-12-06T23:04:07.098Z,4.17
2022-12-06T23:06:35.186Z,4.22
2022-12-06T23:09:01.914Z,4.16
2022-12-06T23:11:30.842Z,4.20
2022-12-06T23:13:57.964Z,4.30
2022-12-06T23:16:29.200Z,4.18
2022-12-06T23:18:55.858Z,4.37
2022-12-06T23:21:30.138Z,4.20
2022-12-06T23:23:59.387Z,4.25
2022-12-06T23:26:28.257Z,4.18
2022-12-06T23:28:54.650Z,4.30
2022-12-06T23:31:32.583Z,4.30
2022-12-06T23:34:05.072Z,4.29
2022-12-06T23:36:33.094Z,4.31
2022-12-06T23:39:00.027Z,4.42
2022-12-06T23:41:28.365Z,4.45
2022-12-06T23:43:55.730Z,4.27
2022-12-06T23:46:25.324Z,4.39
2022-12-06T23:48:52.599Z,4.62
2022-12-06T23:51:21.052Z,4.44
2022-12-06T23:53:53.368Z,4.33
2022-12-06T23:56:21.444Z,4.38
2022-12-06T23:58:50.500Z,4.61
